Time;durP1;ratioP1;P1;durP2;ratioP2;P2;SDS_P1;SDS_P2;PMS_P1;PMS_P2;Temp;Humidity;BMP_temperature;BMP_pressure;BME280_temperature;BME280_humidity;BME280_pressure;Samples;Min_cycle;Max_cycle;Signal;HPM_P1;HPM_P2
2023/03/09 00:02:09;;;;;;;9.80;5.55;;;3.90;99.90;;;;;;5014649;28;20475;-83
2023/03/09 00:04:35;;;;;;;9.70;5.35;;;3.30;99.90;;;;;;4997961;28;20041;-83
2023/03/09 00:07:02;;;;;;;12.00;5.22;;;2.70;99.90;;;;;;4981927;28;20049;-83
2023/03/09 00:09:27;;;;;;;12.00;6.07;;;2.90;99.90;;;;;;5014353;28;20374;-83
2023/03/09 00:11:53;;;;;;;9.50;5.00;;;2.10;99.90;;;;;;4997781;28;20041;-83
2023/03/09 00:14:21;;;;;;;7.70;4.43;;;3.60;99.90;;;;;;5013893;28;20041;-84
2023/03/09 00:16:47;;;;;;;10.23;5.30;;;3.50;99.90;;;;;;4997615;28;20079;-83
2023/03/09 00:19:20;;;;;;;8.82;4.53;;;2.20;99.90;;;;;;5014416;28;20073;-83
2023/03/09 00:21:51;;;;;;;;;;;2.30;99.90;;;;;;5014931;28;20041;-84
2023/03/09 00:24:18;;;;;;;9.85;6.20;;;2.50;99.90;;;;;;5010713;28;19925;-84
2023/03/09 00:26:53;;;;;;;10.43;5.40;;;2.20;99.90;;;;;;5010939;28;20065;-84
2023/03/09 00:29:19;;;;;;;8.43;4.80;;;2.10;99.90;;;;;;4995422;28;20056;-84
2023/03/09 00:31:45;;;;;;;9.90;4.82;;;2.40;99.90;;;;;;5010361;28;20076;-84
2023/03/09 00:34:12;;;;;;;11.35;5.47;;;2.70;99.90;;;;;;5010714;28;20098;-83
2023/03/09 00:36:39;;;;;;;9.60;5.07;;;3.90;99.90;;;;;;4993764;28;20455;-84
2023/03/09 00:39:05;;;;;;;13.20;6.10;;;2.80;99.90;;;;;;4994402;28;20046;-84
2023/03/09 00:41:31;;;;;;;11.95;5.65;;;2.20;99.90;;;;;;4994239;28;20048;-85
2023/03/09 00:44:01;;;;;;;8.40;4.93;;;2.90;99.90;;;;;;4994198;28;20050;-84
2023/03/09 00:46:28;;;;;;;8.75;4.57;;;3.30;99.90;;;;;;4994033;28;20037;-84
2023/03/09 00:48:53;;;;;;;9.63;5.32;;;3.40;99.90;;;;;;5010696;28;20046;-84
2023/03/09 00:51:19;;;;;;;10.73;5.60;;;2.30;99.90;;;;;;5010484;28;20037;-84
2023/03/09 00:53:45;;;;;;;10.45;5.22;;;2.70;99.90;;;;;;4977677;28;20050;-83
2023/03/09 00:56:20;;;;;;;11.68;6.07;;;3.30;99.90;;;;;;5010133;28;20045;-83
2023/03/09 00:58:45;;;;;;;9.25;5.00;;;2.40;99.90;;;;;;5010351;28;20048;-83
2023/03/09 01:01:15;;;;;;;11.07;5.55;;;3.20;99.90;;;;;;4994086;28;20128;-84
2023/03/09 01:03:41;;;;;;;10.30;5.53;;;2.20;99.90;;;;;;5010270;28;20110;-83
2023/03/09 01:06:08;;;;;;;10.13;5.07;;;3.10;99.90;;;;;;5009941;28;20102;-84
2023/03/09 01:08:34;;;;;;;8.85;4.72;;;2.30;99.90;;;;;;4993860;28;20065;-84
2023/03/09 01:11:00;;;;;;;9.85;5.15;;;2.10;99.90;;;;;;4993859;28;20060;-83
2023/03/09 01:13:26;;;;;;;8.65;4.80;;;2.20;99.90;;;;;;4993685;28;20174;-84
2023/03/09 01:15:52;;;;;;;10.55;5.07;;;2.20;99.90;;;;;;5009494;28;20080;-83
2023/03/09 01:18:18;;;;;;;10.82;5.18;;;2.20;99.90;;;;;;4993782;28;20049;-83
2023/03/09 01:20:44;;;;;;;11.15;5.20;;;2.10;99.90;;;;;;4993880;28;20042;-84
2023/03/09 01:23:09;;;;;;;9.82;5.55;;;3.40;99.90;;;;;;5009999;28;20483;-83
2023/03/09 01:25:35;;;;;;;8.02;4.43;;;2.60;99.90;;;;;;5009696;28;20058;-83
2023/03/09 01:28:01;;;;;;;9.18;5.47;;;3.30;99.90;;;;;;5010145;28;20045;-83
2023/03/09 01:30:27;;;;;;;9.65;5.50;;;2.60;99.90;;;;;;4993853;28;20085;-83
2023/03/09 01:32:53;;;;;;;10.02;5.32;;;3.20;99.90;;;;;;4993797;28;20387;-84
2023/03/09 01:35:19;;;;;;;10.13;5.40;;;3.30;99.90;;;;;;4979649;28;20091;-84
2023/03/09 01:37:45;;;;;;;12.32;5.78;;;3.40;99.90;;;;;;5013619;28;20072;-84
2023/03/09 01:40:17;;;;;;;9.65;5.90;;;2.60;99.90;;;;;;5013391;28;20428;-84
2023/03/09 01:42:43;;;;;;;11.35;5.00;;;1.90;99.90;;;;;;5013698;28;20111;-84
2023/03/09 01:45:28;;;;;;;10.73;5.97;;;3.40;99.90;;;;;;4996345;28;20379;-84
2023/03/09 01:47:58;;;;;;;8.85;5.97;;;2.90;99.90;;;;;;5013147;28;20090;-84
2023/03/09 01:50:34;;;;;;;11.82;6.32;;;2.00;99.90;;;;;;5013326;28;20038;-84
2023/03/09 01:53:07;;;;;;;13.07;5.85;;;3.40;99.90;;;;;;5013235;28;20054;-84
2023/03/09 01:55:38;;;;;;;13.48;6.47;;;1.90;99.90;;;;;;5013199;28;20046;-84
2023/03/09 01:58:17;;;;;;;13.68;6.57;;;2.80;99.90;;;;;;4997012;28;20045;-83
2023/03/09 02:00:47;;;;;;;11.75;6.72;;;3.50;99.90;;;;;;5014004;28;20103;-83
2023/03/09 02:03:20;;;;;;;12.32;5.90;;;2.90;99.90;;;;;;5013045;28;20064;-83
2023/03/09 02:05:52;;;;;;;11.30;5.95;;;2.60;99.90;;;;;;5013025;28;20046;-83
2023/03/09 02:08:19;;;;;;;11.52;6.18;;;3.50;99.90;;;;;;5013288;28;20052;-83
2023/03/09 02:10:51;;;;;;;12.77;6.82;;;3.00;99.90;;;;;;5012926;28;20094;-83
2023/03/09 02:13:21;;;;;;;10.93;5.85;;;3.00;99.90;;;;;;5012682;28;20050;-83
2023/03/09 02:15:48;;;;;;;13.55;6.00;;;1.70;99.90;;;;;;5013374;28;20049;-83
2023/03/09 02:18:13;;;;;;;14.40;7.13;;;2.30;99.90;;;;;;4996506;28;20046;-83
2023/03/09 02:20:51;;;;;;;11.80;6.72;;;1.70;99.90;;;;;;5012906;28;20364;-83
2023/03/09 02:23:49;;;;;;;12.40;6.18;;;1.80;99.90;;;;;;5013119;28;20414;-83
2023/03/09 02:26:23;;;;;;;13.13;7.00;;;1.80;99.90;;;;;;5012641;28;20106;-83
2023/03/09 02:28:49;;;;;;;12.60;6.50;;;1.80;99.90;;;;;;5012463;28;20091;-83
2023/03/09 02:31:18;;;;;;;13.40;6.93;;;2.10;99.90;;;;;;5012611;28;20420;-83
2023/03/09 02:33:44;;;;;;;13.02;6.85;;;2.40;99.90;;;;;;5012572;28;20088;-83
2023/03/09 02:36:09;;;;;;;12.35;6.35;;;2.30;99.90;;;;;;5013084;28;20103;-83
2023/03/09 02:38:35;;;;;;;13.70;6.85;;;2.50;99.90;;;;;;5012542;28;20046;-83
2023/03/09 02:41:03;;;;;;;13.57;7.22;;;1.70;99.90;;;;;;5012907;28;20098;-83
2023/03/09 02:43:35;;;;;;;14.85;7.45;;;1.80;99.90;;;;;;5012452;28;20120;-83
2023/03/09 02:46:01;;;;;;;16.63;7.68;;;2.20;99.90;;;;;;5010484;28;20175;-82
2023/03/09 02:48:26;;;;;;;13.38;7.53;;;1.80;99.90;;;;;;4995891;28;20514;-83
2023/03/09 02:50:52;;;;;;;15.02;7.40;;;3.20;99.90;;;;;;5012188;28;20073;-83
2023/03/09 02:53:18;;;;;;;14.45;7.40;;;2.00;99.90;;;;;;5012306;28;20038;-83
2023/03/09 02:55:44;;;;;;;15.75;7.43;;;1.70;99.90;;;;;;5012110;28;20050;-83
2023/03/09 02:58:10;;;;;;;13.80;6.57;;;1.60;99.90;;;;;;5012265;28;20421;-83
2023/03/09 03:00:35;;;;;;;13.40;7.10;;;2.50;99.90;;;;;;5012426;28;20042;-83
2023/03/09 03:03:01;;;;;;;14.65;7.15;;;2.30;99.90;;;;;;5012462;28;20042;-83
2023/03/09 03:05:27;;;;;;;14.23;7.55;;;2.10;99.90;;;;;;4995777;28;20045;-83
2023/03/09 03:07:53;;;;;;;13.90;6.63;;;2.40;99.90;;;;;;4996507;28;20045;-83
2023/03/09 03:10:18;;;;;;;13.68;7.35;;;2.60;99.90;;;;;;4995781;28;20042;-83
2023/03/09 03:12:44;;;;;;;13.52;7.47;;;1.70;99.90;;;;;;4995749;28;20420;-83
2023/03/09 03:15:10;;;;;;;12.85;7.15;;;2.60;99.90;;;;;;5011382;28;20045;-83
2023/03/09 03:17:36;;;;;;;16.65;7.63;;;1.70;99.90;;;;;;5011895;28;20053;-83
2023/03/09 03:20:02;;;;;;;17.08;7.85;;;2.40;99.90;;;;;;5012459;28;20383;-83
2023/03/09 03:22:28;;;;;;;13.75;8.18;;;1.70;99.90;;;;;;5011834;28;20057;-83
2023/03/09 03:24:54;;;;;;;14.48;7.35;;;2.30;99.90;;;;;;4994775;28;20072;-83
2023/03/09 03:27:20;;;;;;;15.15;8.10;;;1.80;99.90;;;;;;4979330;28;20436;-83
2023/03/09 03:29:45;;;;;;;15.75;7.95;;;3.20;99.90;;;;;;4995423;28;20041;-83
2023/03/09 03:32:11;;;;;;;14.88;7.97;;;2.80;99.90;;;;;;5011393;28;20041;-83
2023/03/09 03:34:37;;;;;;;16.92;7.88;;;2.30;99.90;;;;;;4978977;28;20037;-83
2023/03/09 03:37:03;;;;;;;16.55;8.98;;;1.70;99.90;;;;;;5011513;28;20095;-83
2023/03/09 03:39:28;;;;;;;16.40;8.20;;;2.80;99.90;;;;;;4995520;28;20038;-83
2023/03/09 03:41:54;;;;;;;19.75;9.07;;;1.80;99.90;;;;;;5011526;28;20080;-83
2023/03/09 03:44:20;;;;;;;18.08;8.98;;;3.10;99.90;;;;;;5011245;28;20118;-83
2023/03/09 03:46:45;;;;;;;20.27;10.10;;;1.90;99.90;;;;;;4978901;28;20052;-83
2023/03/09 03:49:11;;;;;;;18.33;9.20;;;2.90;99.90;;;;;;5011489;28;20544;-83
2023/03/09 03:51:37;;;;;;;18.70;8.85;;;1.90;99.90;;;;;;5011601;28;20357;-83
2023/03/09 03:54:02;;;;;;;16.33;8.73;;;2.60;99.90;;;;;;5011012;28;20483;-83
2023/03/09 03:56:28;;;;;;;21.08;9.88;;;1.60;99.90;;;;;;4995276;28;20086;-83
2023/03/09 03:58:54;;;;;;;16.35;8.15;;;2.80;99.90;;;;;;4994529;28;20042;-83
2023/03/09 04:01:19;;;;;;;19.50;9.07;;;2.10;99.90;;;;;;4994982;28;20046;-83
2023/03/09 04:03:45;;;;;;;17.92;8.00;;;1.70;99.90;;;;;;4978796;28;20041;-83
2023/03/09 04:06:11;;;;;;;16.73;8.70;;;2.40;99.90;;;;;;4994967;28;20041;-83
2023/03/09 04:08:36;;;;;;;15.55;8.68;;;3.00;99.90;;;;;;5010967;28;20472;-83
2023/03/09 04:11:07;;;;;;;15.98;8.02;;;1.70;99.90;;;;;;4978644;28;20384;-83
2023/03/09 04:13:32;;;;;;;15.43;8.23;;;1.70;99.90;;;;;;4995451;28;20360;-83
2023/03/09 04:15:58;;;;;;;17.00;7.82;;;2.10;99.90;;;;;;4994305;28;20175;-83
2023/03/09 04:18:23;;;;;;;16.50;8.18;;;1.50;99.90;;;;;;5011291;28;20471;-83
2023/03/09 04:20:49;;;;;;;13.43;7.18;;;3.00;99.90;;;;;;4994642;28;20034;-82
2023/03/09 04:23:15;;;;;;;14.30;7.72;;;2.90;99.90;;;;;;4995225;28;20042;-83
2023/03/09 04:25:41;;;;;;;16.98;8.50;;;2.90;99.90;;;;;;5010648;28;20125;-83
2023/03/09 04:28:06;;;;;;;13.82;7.32;;;1.80;99.90;;;;;;4994778;28;20053;-83
2023/03/09 04:30:32;;;;;;;15.10;8.13;;;2.40;99.90;;;;;;4994313;28;20132;-83
2023/03/09 04:32:58;;;;;;;12.80;7.38;;;1.70;99.90;;;;;;4994485;28;20091;-83
2023/03/09 04:35:23;;;;;;;14.35;8.38;;;1.80;99.90;;;;;;4994459;28;20099;-83
2023/03/09 04:37:51;;;;;;;16.63;7.82;;;2.50;99.90;;;;;;4994396;28;20111;-82
2023/03/09 04:40:17;;;;;;;14.98;8.23;;;2.40;99.90;;;;;;4978561;28;20045;-82
2023/03/09 04:42:43;;;;;;;13.40;7.80;;;1.80;99.90;;;;;;5010674;28;20053;-82
2023/03/09 04:45:10;;;;;;;15.50;7.57;;;3.10;99.90;;;;;;4993612;28;20352;-82
2023/03/09 04:47:36;;;;;;;15.35;8.23;;;1.90;99.90;;;;;;4994502;28;20045;-82
2023/03/09 04:50:02;;;;;;;16.60;8.13;;;2.90;99.90;;;;;;5010500;28;20041;-83
2023/03/09 04:52:28;;;;;;;14.40;8.10;;;1.70;99.90;;;;;;5010556;28;20077;-82
2023/03/09 04:54:54;;;;;;;17.23;8.20;;;2.50;99.90;;;;;;5010147;28;20538;-82
2023/03/09 04:57:21;;;;;;;16.83;8.45;;;2.10;99.90;;;;;;4994152;28;20513;-82
2023/03/09 04:59:46;;;;;;;16.48;7.68;;;2.40;99.90;;;;;;5010457;28;20088;-83
2023/03/09 05:02:12;;;;;;;15.30;7.30;;;3.40;99.90;;;;;;4978061;28;20442;-83
2023/03/09 05:04:38;;;;;;;16.05;8.57;;;2.40;99.90;;;;;;4994021;28;20459;-82
2023/03/09 05:07:04;;;;;;;14.32;8.40;;;1.70;99.90;;;;;;5010590;28;20467;-82
2023/03/09 05:09:29;;;;;;;16.55;7.88;;;1.70;99.90;;;;;;5009379;28;20045;-82
2023/03/09 05:11:55;;;;;;;14.30;8.30;;;2.30;99.90;;;;;;5010281;28;20488;-82
2023/03/09 05:14:21;;;;;;;13.77;7.25;;;1.60;99.90;;;;;;4977834;28;20079;-82
2023/03/09 05:16:51;;;;;;;12.57;8.13;;;1.80;99.90;;;;;;4993301;28;20076;-83
2023/03/09 05:19:18;;;;;;;13.77;8.07;;;2.60;99.90;;;;;;5010191;28;20042;-82
2023/03/09 05:21:44;;;;;;;13.95;7.68;;;1.70;99.90;;;;;;5010177;28;20045;-82
2023/03/09 05:24:10;;;;;;;14.40;8.18;;;2.50;99.90;;;;;;4995520;28;20067;-82
2023/03/09 05:26:35;;;;;;;13.85;8.45;;;2.20;99.90;;;;;;4997034;28;20095;-82
2023/03/09 05:29:01;;;;;;;14.75;8.13;;;1.50;99.90;;;;;;4981099;28;20052;-83
2023/03/09 05:31:27;;;;;;;14.15;8.65;;;2.00;99.90;;;;;;5013127;28;20420;-82
2023/03/09 05:33:53;;;;;;;15.90;9.48;;;2.20;99.90;;;;;;4997553;28;20046;-82
2023/03/09 05:36:22;;;;;;;16.70;8.48;;;1.60;99.90;;;;;;5013201;28;20102;-82
2023/03/09 05:38:49;;;;;;;17.65;9.25;;;1.60;99.90;;;;;;5013287;28;20041;-82
2023/03/09 05:41:15;;;;;;;17.63;9.05;;;3.00;99.90;;;;;;5013366;28;20074;-82
2023/03/09 05:43:43;;;;;;;15.50;8.98;;;2.50;99.90;;;;;;4996968;28;20037;-82
2023/03/09 05:46:15;;;;;;;16.63;9.13;;;1.50;99.90;;;;;;5012084;28;20485;-82
2023/03/09 05:48:42;;;;;;;15.60;8.40;;;3.10;99.90;;;;;;5013078;28;20052;-82
2023/03/09 05:51:08;;;;;;;16.23;9.13;;;2.80;99.90;;;;;;4996787;28;20090;-82
2023/03/09 05:53:35;;;;;;;14.95;8.80;;;2.10;99.90;;;;;;5012947;28;20132;-82
2023/03/09 05:56:02;;;;;;;15.60;8.73;;;1.50;99.90;;;;;;4996820;28;20041;-82
2023/03/09 05:58:27;;;;;;;16.70;9.20;;;2.90;99.90;;;;;;4996671;28;20050;-82
2023/03/09 06:00:53;;;;;;;16.55;9.55;;;1.50;99.90;;;;;;4996593;28;20128;-82
2023/03/09 06:03:20;;;;;;;14.75;9.48;;;1.80;99.90;;;;;;4996702;28;20063;-82
2023/03/09 06:05:46;;;;;;;16.20;8.68;;;1.30;99.90;;;;;;4996889;28;20053;-82
2023/03/09 06:08:13;;;;;;;14.48;8.40;;;3.00;99.90;;;;;;4980384;28;20045;-82
2023/03/09 06:10:39;;;;;;;15.98;9.43;;;1.50;99.90;;;;;;4996557;28;20128;-82
2023/03/09 06:13:05;;;;;;;19.08;8.98;;;1.50;99.90;;;;;;5012398;28;20080;-83
2023/03/09 06:15:31;;;;;;;14.88;8.82;;;3.00;99.90;;;;;;5012117;28;20057;-83
2023/03/09 06:17:57;;;;;;;14.70;9.30;;;2.70;99.90;;;;;;5012858;28;20042;-82
2023/03/09 06:20:23;;;;;;;15.80;8.57;;;1.60;99.90;;;;;;4980900;28;20045;-83
2023/03/09 06:22:49;;;;;;;16.08;8.05;;;1.40;99.90;;;;;;4983688;28;20041;-83
2023/03/09 06:25:15;;;;;;;17.55;9.20;;;2.60;99.90;;;;;;5015623;28;20052;-83
2023/03/09 06:27:41;;;;;;;16.20;8.18;;;1.50;99.90;;;;;;5015989;28;20391;-82
2023/03/09 06:30:08;;;;;;;16.38;9.45;;;1.80;99.90;;;;;;5016056;28;20091;-82
2023/03/09 06:32:34;;;;;;;13.52;8.15;;;1.40;99.90;;;;;;4999506;28;20089;-82
2023/03/09 06:35:00;;;;;;;15.23;7.97;;;2.70;99.90;;;;;;5015861;28;20132;-82
2023/03/09 06:37:26;;;;;;;13.93;8.15;;;2.70;99.90;;;;;;5015573;28;20111;-82
2023/03/09 06:39:52;;;;;;;15.60;8.35;;;1.40;99.90;;;;;;4999541;28;20059;-82
2023/03/09 06:42:18;;;;;;;13.18;8.65;;;1.70;99.90;;;;;;5015803;28;20413;-83
2023/03/09 06:44:44;;;;;;;15.70;9.02;;;3.00;99.90;;;;;;4998816;28;20390;-83
2023/03/09 06:47:11;;;;;;;14.35;7.97;;;2.20;99.90;;;;;;4999394;28;20045;-82
2023/03/09 06:49:37;;;;;;;16.70;8.15;;;2.10;99.90;;;;;;4999322;28;20091;-82
2023/03/09 06:52:04;;;;;;;14.25;8.68;;;1.50;99.90;;;;;;5015574;28;20102;-83
2023/03/09 06:54:29;;;;;;;16.08;8.05;;;3.00;99.90;;;;;;4999298;28;20444;-82
2023/03/09 06:56:55;;;;;;;14.20;9.05;;;1.60;99.90;;;;;;5015737;28;20046;-83
2023/03/09 06:59:21;;;;;;;15.48;8.20;;;1.70;99.90;;;;;;4983247;28;20120;-82
2023/03/09 07:01:46;;;;;;;17.45;8.35;;;1.50;99.90;;;;;;4999390;28;20041;-83
2023/03/09 07:04:12;;;;;;;13.68;7.68;;;2.10;99.90;;;;;;4999617;28;20045;-83
2023/03/09 07:06:38;;;;;;;11.88;7.03;;;1.90;99.90;;;;;;4999628;28;20425;-82
2023/03/09 07:09:04;;;;;;;14.60;7.88;;;1.90;99.90;;;;;;4999170;28;20432;-83
2023/03/09 07:11:30;;;;;;;13.70;7.82;;;2.90;99.90;;;;;;4999056;28;20049;-83
2023/03/09 07:13:56;;;;;;;13.73;7.50;;;2.90;99.90;;;;;;4999009;28;20387;-83
2023/03/09 07:16:22;;;;;;;11.55;6.88;;;2.20;99.90;;;;;;5014689;28;20048;-83
2023/03/09 07:18:48;;;;;;;14.48;7.97;;;2.30;99.90;;;;;;5014893;28;20056;-83
2023/03/09 07:21:14;;;;;;;12.95;7.35;;;1.60;99.90;;;;;;5015145;28;20049;-83
2023/03/09 07:23:40;;;;;;;14.45;7.57;;;3.00;99.90;;;;;;4982925;28;20049;-82
2023/03/09 07:26:07;;;;;;;11.95;7.22;;;1.90;99.90;;;;;;4998117;28;20475;-82
2023/03/09 07:28:33;;;;;;;13.00;7.40;;;3.00;99.90;;;;;;4998764;28;20140;-83
2023/03/09 07:31:07;;;;;;;16.65;7.28;;;1.70;99.90;;;;;;5015088;28;20091;-83
2023/03/09 07:33:32;;;;;;;;;;;2.00;99.90;;;;;;5014683;28;20099;-83
2023/03/09 07:35:58;;;;;;;11.57;6.35;;;1.90;99.90;;;;;;5014944;28;20315;-83
2023/03/09 07:38:24;;;;;;;13.93;7.30;;;3.10;99.90;;;;;;4998839;28;20512;-83
2023/03/09 07:40:50;;;;;;;13.20;6.55;;;3.40;99.90;;;;;;5014823;28;20045;-82
2023/03/09 07:43:16;;;;;;;13.85;7.32;;;1.70;99.90;;;;;;4998517;28;20097;-82
2023/03/09 07:45:41;;;;;;;11.73;6.47;;;2.90;99.90;;;;;;4981564;28;20041;-83
2023/03/09 07:48:08;;;;;;;13.63;7.80;;;3.50;99.90;;;;;;5014879;28;20048;-82
2023/03/09 07:50:34;;;;;;;11.07;6.68;;;1.80;99.90;;;;;;5016968;28;20447;-83
2023/03/09 07:52:59;;;;;;;12.95;7.13;;;1.80;99.90;;;;;;5001672;28;20088;-82
2023/03/09 07:55:26;;;;;;;12.25;6.25;;;2.20;99.90;;;;;;5001647;28;20076;-82
2023/03/09 07:57:53;;;;;;;11.75;6.85;;;1.90;99.90;;;;;;5017942;28;20049;-82
2023/03/09 08:00:22;;;;;;;13.15;7.45;;;2.50;99.90;;;;;;5034289;28;20120;-82
2023/03/09 08:02:48;;;;;;;12.25;6.28;;;1.90;99.90;;;;;;5017976;28;20083;-83
2023/03/09 08:05:15;;;;;;;12.98;7.03;;;3.30;99.90;;;;;;5017886;28;20083;-82
2023/03/09 08:07:44;;;;;;;12.38;7.60;;;1.90;99.90;;;;;;5017942;28;20048;-82
2023/03/09 08:10:10;;;;;;;11.75;6.43;;;2.30;99.90;;;;;;5018273;28;20041;-83
2023/03/09 08:12:36;;;;;;;12.40;6.70;;;1.90;99.90;;;;;;5017784;28;20071;-82
2023/03/09 08:15:02;;;;;;;12.60;6.57;;;2.90;99.90;;;;;;5017408;28;20048;-82
2023/03/09 08:17:28;;;;;;;13.00;6.38;;;2.10;99.90;;;;;;5018782;28;20123;-82
2023/03/09 08:19:54;;;;;;;13.60;7.28;;;2.30;99.90;;;;;;5034172;28;20041;-83
2023/03/09 08:22:20;;;;;;;9.07;5.13;;;3.50;99.90;;;;;;5033830;28;20089;-84
2023/03/09 08:24:46;;;;;;;9.55;5.82;;;2.10;99.90;;;;;;5020675;28;20056;-82
2023/03/09 08:27:11;;;;;;;13.02;6.20;;;2.40;99.90;;;;;;5014503;28;20061;-83
2023/03/09 08:29:37;;;;;;;11.60;6.65;;;2.60;99.90;;;;;;5019198;28;20083;-80
2023/03/09 08:32:08;;;;;;;11.60;6.80;;;3.60;99.90;;;;;;5031635;28;20041;-74
2023/03/09 08:34:34;;;;;;;14.98;7.05;;;2.40;99.90;;;;;;5014422;28;20041;-74
2023/03/09 08:37:00;;;;;;;13.05;6.20;;;2.40;99.90;;;;;;5030531;28;20065;-74
2023/03/09 08:39:26;;;;;;;52.58;16.90;;;3.20;99.90;;;;;;5031630;28;20038;-73
2023/03/09 08:41:52;;;;;;;11.05;6.32;;;2.60;99.90;;;;;;5031099;28;20049;-75
2023/03/09 08:44:17;;;;;;;11.23;5.82;;;2.50;99.90;;;;;;5030644;28;20379;-73
2023/03/09 08:46:43;;;;;;;10.38;5.68;;;3.80;99.90;;;;;;5030009;28;20445;-77
2023/03/09 08:49:09;;;;;;;9.93;5.68;;;2.60;99.90;;;;;;5031376;28;20049;-78
2023/03/09 08:51:34;;;;;;;9.40;5.88;;;3.10;99.90;;;;;;5031538;28;20045;-76
2023/03/09 08:54:00;;;;;;;11.73;6.28;;;2.70;99.90;;;;;;5031236;28;20052;-76
2023/03/09 08:56:26;;;;;;;10.73;6.20;;;2.80;99.90;;;;;;5031272;28;20033;-77
2023/03/09 08:58:52;;;;;;;10.45;5.60;;;2.80;99.90;;;;;;5031344;28;20045;-77
2023/03/09 09:01:18;;;;;;;12.25;6.55;;;2.50;99.90;;;;;;5030105;28;20126;-76
2023/03/09 09:03:43;;;;;;;12.75;6.90;;;3.30;99.90;;;;;;5031117;28;20045;-78
2023/03/09 09:06:12;;;;;;;11.65;6.65;;;3.30;99.90;;;;;;5030181;28;20048;-78
2023/03/09 09:08:38;;;;;;;11.60;5.82;;;3.50;99.90;;;;;;5031189;28;20044;-77
2023/03/09 09:11:06;;;;;;;10.02;6.22;;;2.70;99.90;;;;;;5030279;28;20042;-77
2023/03/09 09:13:32;;;;;;;10.15;6.30;;;2.50;99.90;;;;;;5031130;28;20060;-75
2023/03/09 09:15:59;;;;;;;12.50;5.93;;;2.50;99.90;;;;;;5029371;28;20037;-74
2023/03/09 09:18:25;;;;;;;10.05;5.80;;;2.60;99.90;;;;;;5019825;28;20046;-75
2023/03/09 09:20:51;;;;;;;10.43;6.00;;;2.70;99.90;;;;;;5004294;28;20052;-76
2023/03/09 09:23:17;;;;;;;10.40;6.13;;;3.70;99.90;;;;;;5020176;28;20128;-77
2023/03/09 09:25:43;;;;;;;10.45;6.07;;;2.90;99.90;;;;;;5001673;28;20130;-75
2023/03/09 09:28:09;;;;;;;8.57;5.20;;;2.80;99.90;;;;;;5000356;28;20451;-74
2023/03/09 09:30:36;;;;;;;9.88;6.13;;;2.90;99.90;;;;;;4999748;28;20121;-75
2023/03/09 09:33:04;;;;;;;12.05;6.47;;;3.00;99.90;;;;;;4999767;28;20049;-78
2023/03/09 09:35:30;;;;;;;10.38;6.38;;;2.70;99.90;;;;;;5000274;28;20038;-75
2023/03/09 09:37:57;;;;;;;11.05;5.80;;;3.10;99.90;;;;;;4999085;28;20505;-75
2023/03/09 09:40:23;;;;;;;10.10;5.93;;;3.10;99.90;;;;;;5000653;28;20042;-75
2023/03/09 09:42:50;;;;;;;9.38;5.68;;;2.90;99.90;;;;;;4998476;28;20042;-75
2023/03/09 09:45:32;;;;;;;9.40;6.00;;;2.90;99.90;;;;;;5000746;28;20121;-76
2023/03/09 09:48:01;;;;;;;9.57;5.20;;;3.00;99.90;;;;;;5001702;28;20029;-75
2023/03/09 09:50:44;;;;;;;9.15;5.38;;;3.60;99.90;;;;;;4999350;28;20058;-75
2023/03/09 09:53:17;;;;;;;10.73;6.05;;;2.90;99.90;;;;;;4999863;28;20139;-74
2023/03/09 09:55:44;;;;;;;10.98;5.43;;;3.10;99.90;;;;;;5001438;28;20123;-75
2023/03/09 09:58:32;;;;;;;11.30;5.40;;;3.20;99.90;;;;;;4986372;28;20053;-75
2023/03/09 10:01:02;;;;;;;10.68;5.80;;;2.90;99.90;;;;;;5004967;28;20079;-78
2023/03/09 10:03:45;;;;;;;8.93;4.78;;;3.50;99.90;;;;;;5004152;28;20075;-77
2023/03/09 10:06:20;;;;;;;9.45;5.47;;;3.50;99.90;;;;;;4999800;28;20041;-78
2023/03/09 10:08:56;;;;;;;10.27;4.93;;;4.20;99.90;;;;;;5006691;28;20417;-77
2023/03/09 10:11:35;;;;;;;9.68;5.10;;;3.20;99.90;;;;;;5005908;28;20072;-77
2023/03/09 10:14:20;;;;;;;6.93;4.05;;;3.10;99.90;;;;;;4999844;28;20118;-78
2023/03/09 10:16:54;;;;;;;7.60;4.55;;;3.10;99.90;;;;;;4992347;28;20042;-77
2023/03/09 10:19:31;;;;;;;6.93;4.35;;;4.20;99.90;;;;;;4994238;28;20046;-76
2023/03/09 10:22:04;;;;;;;7.35;4.68;;;3.20;99.90;;;;;;4993420;28;20050;-72
2023/03/09 10:24:39;;;;;;;7.78;4.70;;;3.60;99.90;;;;;;5003614;28;20580;-75
2023/03/09 10:27:17;;;;;;;9.30;5.10;;;4.10;99.90;;;;;;5016462;28;20050;-75
2023/03/09 10:30:10;;;;;;;8.75;4.63;;;3.70;99.90;;;;;;5033458;28;20041;-76
2023/03/09 10:33:07;;;;;;;6.80;4.45;;;3.40;99.90;;;;;;5033545;28;20046;-76
2023/03/09 10:36:14;;;;;;;6.32;4.22;;;3.40;99.90;;;;;;5033298;28;20052;-76
2023/03/09 10:38:40;;;;;;;8.93;4.95;;;3.30;99.90;;;;;;5033772;28;20053;-76
2023/03/09 10:41:18;;;;;;;6.45;3.80;;;3.50;99.90;;;;;;5015742;28;20059;-75
2023/03/09 10:43:45;;;;;;;9.70;4.53;;;3.50;99.90;;;;;;5033388;28;20075;-76
2023/03/09 10:46:17;;;;;;;6.75;4.40;;;3.50;99.90;;;;;;5015066;28;20041;-76
2023/03/09 10:48:44;;;;;;;7.43;4.53;;;3.40;99.90;;;;;;5033231;28;20041;-75
2023/03/09 10:51:32;;;;;;;8.23;4.97;;;3.60;99.90;;;;;;5033239;28;20041;-76
2023/03/09 10:54:24;;;;;;;7.13;5.10;;;4.00;99.90;;;;;;5015427;28;20045;-76
2023/03/09 10:56:51;;;;;;;7.97;4.75;;;3.50;99.90;;;;;;4999564;28;20061;-75
2023/03/09 10:59:23;;;;;;;8.07;5.15;;;3.50;99.90;;;;;;5033121;28;20116;-75
2023/03/09 11:01:54;;;;;;;6.65;4.30;;;4.10;99.90;;;;;;5032983;28;20049;-75
2023/03/09 11:04:26;;;;;;;7.70;4.82;;;3.10;99.90;;;;;;5033323;28;20049;-76
2023/03/09 11:06:53;;;;;;;8.48;5.25;;;3.50;99.90;;;;;;5014372;28;20474;-75
2023/03/09 11:09:26;;;;;;;8.57;5.38;;;3.70;99.90;;;;;;4999241;28;20098;-76
2023/03/09 11:11:53;;;;;;;8.27;5.13;;;4.60;99.90;;;;;;5035702;28;20196;-76
2023/03/09 11:14:24;;;;;;;9.90;5.78;;;4.10;99.90;;;;;;5035572;28;20378;-75
2023/03/09 11:16:56;;;;;;;7.65;5.05;;;3.60;99.90;;;;;;5052454;28;20045;-76
2023/03/09 11:19:22;;;;;;;9.35;5.57;;;3.60;99.90;;;;;;5052608;28;20048;-76
2023/03/09 11:21:57;;;;;;;9.77;5.90;;;3.80;99.90;;;;;;5052559;28;20117;-75
2023/03/09 11:24:59;;;;;;;9.73;5.35;;;3.70;99.90;;;;;;5052517;28;20076;-76
2023/03/09 11:27:30;;;;;;;8.30;4.80;;;3.60;99.90;;;;;;4971687;28;20046;-75
2023/03/09 11:30:14;;;;;;;8.38;5.32;;;3.70;99.90;;;;;;5039708;28;20064;-76
2023/03/09 11:32:40;;;;;;;7.40;4.30;;;3.60;99.90;;;;;;5034989;28;20218;-76
2023/03/09 11:35:08;;;;;;;10.18;5.75;;;3.70;99.90;;;;;;5052365;28;20033;-76
2023/03/09 11:37:37;;;;;;;8.98;5.03;;;3.70;99.90;;;;;;5034797;28;20055;-75
2023/03/09 11:40:05;;;;;;;8.13;5.32;;;4.50;99.90;;;;;;5052227;28;20474;-75
2023/03/09 11:42:37;;;;;;;8.52;5.60;;;3.60;99.90;;;;;;5052279;28;20086;-76
2023/03/09 11:45:06;;;;;;;9.02;5.75;;;3.60;99.90;;;;;;5051695;28;20128;-76
2023/03/09 11:47:42;;;;;;;7.88;5.55;;;3.60;99.90;;;;;;5034462;28;20045;-76
2023/03/09 11:50:34;;;;;;;9.18;5.57;;;3.90;99.90;;;;;;5052173;28;20078;-76
2023/03/09 11:53:06;;;;;;;8.60;5.22;;;3.70;99.90;;;;;;5042693;28;20137;-75
2023/03/09 11:55:55;;;;;;;9.85;6.00;;;3.80;99.90;;;;;;5052066;28;20033;-75
2023/03/09 11:58:35;;;;;;;9.38;5.38;;;4.30;99.90;;;;;;5018204;28;20063;-75
2023/03/09 12:01:20;;;;;;;9.73;5.90;;;4.20;99.90;;;;;;5034319;28;20045;-75
2023/03/09 12:03:59;;;;;;;7.13;5.32;;;3.80;99.90;;;;;;5052582;28;20123;-75
2023/03/09 12:06:42;;;;;;;9.50;6.32;;;3.80;99.90;;;;;;5052225;28;20045;-75
2023/03/09 12:09:26;;;;;;;8.65;6.05;;;4.00;99.90;;;;;;5034359;28;20041;-74
2023/03/09 12:12:12;;;;;;;9.30;5.65;;;4.00;99.90;;;;;;5051818;28;20121;-75
2023/03/09 12:14:47;;;;;;;8.68;5.97;;;4.50;99.90;;;;;;5011131;28;20048;-75
2023/03/09 12:17:26;;;;;;;9.40;6.55;;;3.90;99.90;;;;;;5033905;28;20056;-75
2023/03/09 12:19:53;;;;;;;8.60;5.80;;;3.80;99.90;;;;;;5051827;28;20116;-75
2023/03/09 12:22:45;;;;;;;11.15;6.47;;;3.90;99.90;;;;;;5051656;28;20045;-75
2023/03/09 12:25:20;;;;;;;10.68;6.43;;;4.30;99.90;;;;;;5051010;28;20128;-75
2023/03/09 12:27:53;;;;;;;7.68;5.07;;;3.90;99.90;;;;;;5051566;28;20044;-75
2023/03/09 12:30:30;;;;;;;11.90;6.40;;;3.80;99.90;;;;;;5034233;28;20049;-75
2023/03/09 12:33:01;;;;;;;9.30;5.95;;;3.90;99.90;;;;;;5051644;28;20041;-76
2023/03/09 12:35:26;;;;;;;8.65;5.53;;;3.90;99.90;;;;;;5051433;28;20048;-75
2023/03/09 12:38:00;;;;;;;9.70;6.70;;;4.20;99.90;;;;;;5051433;28;20045;-75
2023/03/09 12:40:26;;;;;;;;;;;3.90;99.90;;;;;;5051852;28;20040;-75
2023/03/09 12:43:16;;;;;;;8.95;5.93;;;4.70;99.90;;;;;;5051412;28;19916;-76
2023/03/09 12:45:51;;;;;;;10.13;6.40;;;3.90;99.90;;;;;;5039663;28;20185;-75
2023/03/09 12:48:27;;;;;;;9.35;6.10;;;4.20;99.90;;;;;;5051295;28;20496;-75
2023/03/09 12:51:07;;;;;;;10.65;6.90;;;4.10;99.90;;;;;;5033477;28;20045;-74
2023/03/09 12:53:53;;;;;;;11.63;7.18;;;3.90;99.90;;;;;;5034110;28;20049;-74
2023/03/09 12:56:19;;;;;;;11.27;6.82;;;4.20;99.90;;;;;;5051403;28;20047;-75
2023/03/09 12:58:50;;;;;;;9.13;6.43;;;4.10;99.90;;;;;;5050939;28;20045;-75
2023/03/09 13:01:16;;;;;;;10.90;6.60;;;4.70;99.90;;;;;;5051182;28;20052;-78